Latest Weather Observations for Giles*

IDW60801

Issued at 6:03 pm WST Saturday 24 June 2017 (issued every 30 minutes, with the page automatically refreshed every 10 minutes)

About weather observations | Map of weather stations | Latest weather observations for WA | Other Formats
Station Details ID: 013017 Name: GILES METEOROLOGICAL OFFICE Lat: -25.03 Lon: 128.30 Height: 598.0 m
Data from the previous 72 hours. | See also: Recent months at Giles*

* Giles observations are collected in the South Australia time zone, which includes daylight saving in the summer period. Therefore, Rain since 9am value is with respect to South Australia local time.

Date/Time
WST
Temp
°C
App
Temp
°C
Dew
Point
°C
Rel
Hum
%
Delta-T
°C
Wind Press
QNH
hPa
Press
MSL
hPa
Rain since
9am
mm
Dir  Spd
km/h
Gust
km/h
Spd
kts
Gust
kts
24/06:00pm 20.6 19.3 6.0 38 7.5 E 2 6 1 3 1017.7 1016.7 0.0
24/05:30pm 20.9 18.1 5.1 35 8.0 SSE 9 9 5 5 1017.3 1016.3 0.0
24/05:00pm 22.1 19.2 4.5 31 8.9 S 9 11 5 6 1016.9 1015.9 0.0
24/04:30pm 22.9 20.8 3.7 28 9.6 W 4 9 2 5 1016.7 1015.7 0.0
24/04:00pm 24.3 21.8 3.7 26 10.4 NW 6 9 3 5 1016.8 1015.8 0.0
24/03:30pm 24.8 21.1 2.3 23 11.1 N 11 15 6 8 1016.8 1015.8 0.0
24/03:00pm 25.3 22.1 3.0 23 11.2 NNW 9 13 5 7 1016.4 1015.4 0.0
24/02:30pm 25.1 21.4 2.2 22 11.3 NNW 11 15 6 8 1016.6 1015.6 0.0
24/02:00pm 25.5 21.8 2.3 22 11.5 NNW 11 15 6 8 1016.8 1015.8 0.0
24/01:30pm 25.3 22.2 3.6 24 11.0 N 9 15 5 8 1016.6 1015.6 0.0
24/01:00pm 25.0 20.5 2.4 23 11.2 N 15 22 8 12 1016.9 1015.9 0.0
24/12:30pm 24.9 20.9 2.9 24 11.0 N 13 19 7 10 1017.1 1016.1 0.0
24/12:00pm 25.1 21.5 3.2 24 11.0 N 11 24 6 13 1017.9 1016.9 0.0
24/11:30am 24.5 20.4 2.1 23 11.0 NNE 13 20 7 11 1018.4 1017.4 0.0
24/11:00am 24.1 20.1 2.6 24 10.6 NNE 13 22 7 12 1018.8 1017.9 0.0
24/10:30am 22.7 18.7 2.7 27 9.8 ENE 13 22 7 12 1019.2 1018.2 0.0
24/10:00am 21.8 17.3 2.4 28 9.4 E 15 20 8 11 1019.6 1018.6 0.0
24/09:30am 21.1 17.1 3.0 30 8.8 ENE 13 20 7 11 1020.1 1019.2 0.0
24/09:00am 19.8 15.1 3.0 33 8.1 E 17 24 9 13 1020.0 1019.0 0.0
24/08:30am 18.6 15.1 3.5 36 7.3 E 11 20 6 11 1020.0 1019.0 0.0
24/08:00am 16.1 13.3 5.1 48 5.4 SE 9 13 5 7 1019.9 1018.9 0.0
24/07:30am 13.4 10.2 5.3 58 3.9 E 11 15 6 8 1019.8 1018.8 0.0
24/07:00am 12.2 9.4 5.0 61 3.4 E 9 15 5 8 1019.6 1018.6 0.0
24/06:30am 11.2 8.4 5.1 66 2.9 E 9 13 5 7 1019.2 1018.2 0.0
24/06:00am 10.5 7.6 4.9 68 2.6 ESE 9 11 5 6 1018.9 1018.0 0.0
24/05:30am 11.1 8.2 4.9 65 2.9 ESE 9 11 5 6 1018.5 1017.5 0.0
24/05:00am 11.8 9.0 5.0 63 3.2 E 9 13 5 7 1018.6 1017.6 0.0
24/04:30am 11.8 8.5 4.8 62 3.3 ESE 11 13 6 7 1018.4 1017.4 0.0
24/04:00am 12.2 8.6 4.8 60 3.5 ESE 13 17 7 9 1018.5 1017.5 0.0
24/03:30am 12.8 8.8 4.8 58 3.8 E 15 19 8 10 1018.2 1017.2 0.0
24/03:00am 13.4 9.7 4.6 55 4.2 ESE 13 17 7 9 1018.5 1017.5 0.0
24/02:30am 13.9 10.2 4.4 52 4.5 E 13 20 7 11 1018.6 1017.6 0.0
24/02:00am 14.2 10.5 4.3 51 4.7 SE 13 15 7 8 1018.8 1017.9 0.0
24/01:30am 14.9 10.8 4.2 48 5.1 SE 15 20 8 11 1018.8 1017.9 0.0
24/01:00am 14.9 11.2 4.2 48 5.1 SE 13 20 7 11 1019.1 1018.1 0.0
24/12:30am 14.8 11.5 4.3 49 5.0 SSE 11 13 6 7 1019.4 1018.4 0.0
24/12:00am 15.6 12.3 4.4 47 5.4 SE 11 13 6 7 1019.3 1018.3 0.0
 
Date/Time
WST
Temp
°C
App
Temp
°C
Dew
Point
°C
Rel
Hum
%
Delta-T
°C
Wind Press
QNH
hPa
Press
MSL
hPa
Rain since
9am
mm
Dir  Spd
km/h
Gust
km/h
Spd
kts
Gust
kts
23/11:30pm 16.7 12.9 4.0 43 6.1 ESE 13 17 7 9 1019.3 1018.3 0.0
23/11:00pm 17.3 12.7 3.8 40 6.5 ESE 17 24 9 13 1019.2 1018.2 0.0
23/10:30pm 17.5 12.8 3.2 38 6.8 ESE 17 24 9 13 1019.4 1018.4 0.0
23/10:00pm 17.9 12.6 3.0 37 7.1 ESE 20 28 11 15 1019.4 1018.4 0.0
23/09:30pm 17.6 13.2 2.8 37 7.0 E 15 20 8 11 1019.6 1018.6 0.0
23/09:00pm 18.3 13.5 2.4 34 7.5 SE 17 22 9 12 1019.6 1018.6 0.0
23/08:30pm 19.2 13.3 1.7 31 8.2 SSE 22 28 12 15 1019.4 1018.4 0.0
23/08:00pm 19.7 14.2 0.9 28 8.7 SSE 19 26 10 14 1019.3 1018.3 0.0
23/07:30pm 18.5 16.3 5.3 42 6.6 NNE 6 7 3 4 1019.1 1018.1 0.0
23/07:00pm 19.7 17.4 4.6 37 7.5 NNE 6 7 3 4 1019.2 1018.2 0.0
23/06:30pm 21.4 17.9 3.6 31 8.8 NE 11 13 6 7 1018.8 1017.9 0.0
23/06:00pm 21.5 18.0 3.7 31 8.8 NE 11 11 6 6 1018.4 1017.4 0.0
23/05:30pm 21.9 18.8 3.8 30 9.0 NE 9 11 5 6 1018.0 1017.0 0.0
23/05:00pm 22.5 20.1 5.1 32 8.9 N 7 9 4 5 1017.8 1016.8 0.0
23/04:30pm 23.5 21.1 4.4 29 9.7 N 6 7 3 4 1017.5 1016.5 0.0
23/04:00pm 25.2 21.1 2.4 22 11.3 N 13 17 7 9 1017.4 1016.4 0.0
23/03:30pm 25.8 22.4 1.9 21 11.8 NNW 9 13 5 7 1017.4 1016.4 0.0
23/03:00pm 25.9 22.3 2.8 22 11.6 NNE 11 17 6 9 1017.4 1016.4 0.0
23/02:30pm 25.6 20.9 1.1 20 11.9 N 15 22 8 12 1017.4 1016.4 0.0
23/02:00pm 26.3 22.8 1.5 20 12.2 NNE 9 15 5 8 1017.4 1016.4 0.0
23/01:30pm 25.8 21.4 0.4 19 12.2 NNE 13 20 7 11 1017.7 1016.7 0.0
23/01:00pm 25.5 20.3 0.1 19 12.1 N 17 24 9 13 1017.8 1016.8 0.0
23/12:30pm 25.5 21.3 1.6 21 11.7 N 13 20 7 11 1018.2 1017.2 0.0
23/12:00pm 25.8 20.6 0.0 18 12.3 N 17 28 9 15 1018.5 1017.5 0.0
23/11:30am 25.2 19.6 -0.2 19 12.0 N 19 33 10 18 1019.1 1018.1 0.0
23/11:00am 24.8 19.0 -0.3 19 11.8 N 20 30 11 16 1019.6 1018.6 0.0
23/10:30am 24.9 19.0 -0.5 18 11.9 N 20 32 11 17 1020.0 1019.0 0.0
23/10:00am 24.9 19.0 -0.5 18 11.9 N 20 28 11 15 1020.4 1019.5 0.0
23/09:30am 23.6 17.7 -1.0 19 11.3 N 20 28 11 15 1020.6 1019.7 0.0
23/09:00am 22.7 17.6 0.6 23 10.4 NNE 17 24 9 13 1021.1 1020.1 0.0
23/08:30am 21.6 17.2 0.6 24 9.8 NE 13 19 7 10 1021.2 1020.2 0.0
23/08:00am 20.7 16.3 0.6 26 9.3 NE 13 17 7 9 1021.0 1020.0 0.0
23/07:30am 17.2 15.9 4.2 42 6.3 CALM 0 0 0 0 1020.9 1019.9 0.0
23/07:00am 14.7 13.1 2.2 43 5.7 CALM 0 0 0 0 1020.6 1019.7 -
23/06:30am 14.8 12.9 0.8 38 6.2 CALM 0 0 0 0 1020.3 1019.4 -
23/06:00am 16.9 12.6 1.0 34 7.2 NNE 13 20 7 11 1020.0 1019.0 -
23/05:30am 17.1 13.4 0.0 31 7.6 NW 9 20 5 11 1019.7 1018.7 -
23/05:00am 12.9 10.0 1.6 46 5.0 NNW 6 11 3 6 1019.6 1018.6 -
23/04:30am 17.5 13.5 0.4 31 7.7 NNE 11 20 6 11 1019.4 1018.4 -
23/04:00am 16.1 12.9 1.0 36 6.8 N 7 19 4 10 1019.5 1018.5 -
23/03:30am 15.1 12.5 1.0 38 6.3 N 4 7 2 4 1019.4 1018.4 -
23/03:00am 18.8 14.8 0.6 29 8.3 NNE 11 17 6 9 1019.3 1018.3 -
23/02:30am 18.8 14.7 -0.1 28 8.5 NE 11 19 6 10 1019.5 1018.5 -
23/02:00am 17.9 13.6 0.7 31 7.8 NE 13 17 7 9 1019.7 1018.7 -
23/01:30am 16.1 12.6 1.3 36 6.7 N 9 11 5 6 1019.8 1018.8 0.0
23/01:00am 16.6 12.6 0.8 34 7.1 N 11 13 6 7 1020.1 1019.2 -
23/12:30am 18.1 14.1 0.4 30 8.0 NNE 11 15 6 8 1020.2 1019.3 -
23/12:00am 14.7 11.7 0.6 38 6.2 NE 6 7 3 4 1020.3 1019.4 -
 
Date/Time
WST
Temp
°C
App
Temp
°C
Dew
Point
°C
Rel
Hum
%
Delta-T
°C
Wind Press
QNH
hPa
Press
MSL
hPa
Rain since
9am
mm
Dir  Spd
km/h
Gust
km/h
Spd
kts
Gust
kts
22/11:30pm 15.9 12.9 0.6 35 6.8 NNE 6 9 3 5 1020.3 1019.4 -
22/11:00pm 16.1 13.2 1.3 36 6.7 NNE 6 9 3 5 1020.4 1019.5 -
22/10:30pm 15.2 12.9 0.5 36 6.5 E 2 7 1 4 1020.6 1019.7 -
22/10:00pm 17.2 13.7 1.2 34 7.3 NNE 9 13 5 7 1020.5 1019.6 -
22/09:30pm 13.8 11.9 0.8 41 5.7 CALM 0 4 0 2 1020.9 1019.9 -
22/09:00pm 15.7 12.6 1.3 37 6.5 NE 7 9 4 5 1020.9 1019.9 -
22/08:30pm 16.8 13.9 1.2 35 7.1 N 6 7 3 4 1021.0 1020.0 -
22/08:00pm 16.3 13.2 1.6 37 6.7 NNE 7 9 4 5 1020.9 1019.9 -
22/07:30pm 18.5 14.2 0.8 30 8.1 NE 13 15 7 8 1020.7 1019.8 0.0
22/07:00pm 19.3 15.0 0.8 29 8.5 NE 13 15 7 8 1020.5 1019.6 -
22/06:30pm 19.5 15.5 0.5 28 8.7 NE 11 15 6 8 1020.1 1019.2 -
22/06:00pm 19.9 15.6 0.9 28 8.8 NE 13 15 7 8 1019.8 1018.8 -
22/05:30pm 20.4 16.4 0.8 27 9.1 NE 11 13 6 7 1019.6 1018.6 -
22/05:00pm 21.3 17.8 1.1 26 9.5 NE 9 13 5 7 1019.3 1018.3 -
22/04:30pm 23.0 19.6 1.6 24 10.3 NNE 9 11 5 6 1019.1 1018.1 -
22/04:00pm 24.1 19.4 -1.5 18 11.7 N 13 17 7 9 1018.9 1018.0 -
22/03:30pm 24.4 19.8 -1.2 18 11.8 N 13 20 7 11 1018.9 1018.0 -
22/03:00pm 24.8 19.8 -1.5 17 12.1 N 15 26 8 14 1018.9 1018.0 -
22/02:30pm 24.7 19.9 -2.2 16 12.2 N 13 22 7 12 1018.9 1018.0 -
22/02:00pm 24.6 19.0 -2.9 16 12.3 N 17 30 9 16 1019.1 1018.1 -
22/01:30pm 24.7 18.7 -3.1 15 12.4 N 19 28 10 15 1019.3 1018.3 0.0
22/01:00pm 24.5 18.2 -3.6 15 12.4 N 20 30 11 16 1019.6 1018.6 -
22/12:30pm 24.5 17.1 -3.6 15 12.4 N 26 35 14 19 1020.0 1019.0 -
22/12:00pm 22.9 15.5 -3.5 17 11.5 N 26 35 14 19 1020.6 1019.7 -
22/11:30am 23.3 15.9 -3.4 16 11.7 N 26 35 14 19 1021.0 1020.0 -
22/11:00am 23.5 16.1 -3.4 16 11.8 N 26 35 14 19 1021.3 1020.3 -
22/10:30am 22.1 15.2 -2.7 19 10.9 N 24 33 13 18 1021.8 1020.9 -
22/10:00am 22.1 16.2 -1.9 20 10.7 NNE 19 28 10 15 1022.3 1021.4 -
22/09:30am 21.3 15.4 -2.0 21 10.3 NNE 19 28 10 15 1022.7 1021.7 -
22/09:00am 20.5 15.3 -2.5 21 10.0 NNE 15 26 8 14 1022.9 1021.9 -
22/08:30am 19.5 14.0 -1.8 23 9.3 NNE 17 20 9 11 1022.9 1021.9 0.0
22/08:00am 19.3 15.5 -1.0 25 9.0 N 9 11 5 6 1022.8 1021.8 0.0
22/07:30am 16.8 15.1 1.8 36 6.9 CALM 0 0 0 0 1022.5 1021.6 0.0
22/07:00am 14.7 11.6 0.3 37 6.3 N 6 7 3 4 1022.4 1021.5 0.0
22/06:30am 13.2 11.3 0.5 42 5.5 CALM 0 6 0 3 1022.2 1021.3 0.0
22/06:00am 11.9 8.5 -0.9 41 5.3 NE 7 9 4 5 1021.9 1021.0 0.0
22/05:30am 10.4 7.1 -0.2 48 4.4 ESE 7 11 4 6 1021.7 1020.8 0.0
22/05:00am 13.5 8.6 -0.7 37 6.0 ENE 15 17 8 9 1021.3 1020.3 0.0
22/04:30am 13.2 7.9 -0.8 38 5.9 ENE 17 19 9 10 1021.0 1020.0 0.0
22/04:00am 11.2 6.3 -0.3 45 4.8 E 15 17 8 9 1020.7 1019.8 0.0
22/03:30am 8.3 4.3 0.3 57 3.3 ESE 11 13 6 7 1020.7 1019.8 0.0
22/03:00am 9.9 6.2 0.0 50 4.1 ENE 9 13 5 7 1020.9 1019.9 0.0
22/02:30am 13.6 9.8 -0.5 38 6.0 ENE 9 11 5 6 1021.0 1020.0 0.0
22/02:00am 14.6 11.3 -0.2 36 6.4 NE 7 9 4 5 1021.1 1020.1 0.0
22/01:30am 14.8 11.1 -0.2 36 6.5 NE 9 11 5 6 1021.3 1020.3 0.0
22/01:00am 15.0 11.0 0.8 38 6.3 ENE 11 13 6 7 1021.2 1020.2 0.0
22/12:30am 15.3 11.3 0.6 36 6.5 ENE 11 13 6 7 1021.4 1020.4 0.0
22/12:00am 15.2 11.2 0.8 37 6.4 ENE 11 13 6 7 1021.4 1020.4 0.0
 
Date/Time
WST
Temp
°C
App
Temp
°C
Dew
Point
°C
Rel
Hum
%
Delta-T
°C
Wind Press
QNH
hPa
Press
MSL
hPa
Rain since
9am
mm
Dir  Spd
km/h
Gust
km/h
Spd
kts
Gust
kts
21/11:30pm 15.2 11.2 0.8 37 6.4 NE 11 11 6 6 1021.6 1020.7 0.0
21/11:00pm 13.6 11.7 0.5 40 5.7 CALM 0 0 0 0 1021.7 1020.8 0.0
21/10:30pm 13.0 9.9 1.2 44 5.2 NE 7 9 4 5 1022.1 1021.2 0.0
21/10:00pm 13.3 10.4 1.6 45 5.2 NE 6 7 3 4 1022.2 1021.3 0.0
21/09:30pm 12.7 10.4 0.1 42 5.4 NNE 2 11 1 6 1022.1 1021.2 0.0
21/09:00pm 16.4 12.9 1.1 35 6.9 NE 9 13 5 7 1022.1 1021.2 0.0
21/08:30pm 15.0 11.3 -0.2 35 6.6 NE 9 9 5 5 1022.0 1021.1 0.0
21/08:00pm 17.2 13.2 0.8 33 7.4 NE 11 15 6 8 1022.0 1021.1 0.0
21/07:30pm 16.8 13.2 0.8 34 7.2 NE 9 11 5 6 1022.0 1021.1 0.0
21/07:00pm 16.7 13.2 1.0 34 7.1 NNE 9 11 5 6 1021.9 1021.0 0.0
21/06:30pm 17.4 13.0 0.2 31 7.7 NNE 13 15 7 8 1021.6 1020.7 0.0
21/06:00pm 17.5 13.4 -0.4 29 7.9 NNE 11 13 6 7 1021.5 1020.5 0.0
21/05:30pm 18.7 15.0 0.1 28 8.4 NNE 9 11 5 6 1021.2 1020.2 0.0
21/05:00pm 19.5 16.4 1.2 29 8.5 NNE 7 9 4 5 1020.7 1019.8 0.0

Other Formats:

Comma delimited format used in spreadsheet applications
http://www.bom.gov.au/fwo/IDW60801/IDW60801.94461.axf

JavaScript Object Notation format (JSON) in row-major order
http://www.bom.gov.au/fwo/IDW60801/IDW60801.94461.json